TAF PAMC
PAMC 072331Z 0800/0824 24006KT P6SM SCT060 OVC080 FM081300 00000KT 4SM -SN BR OVC025 FM081800 VRB03KT 2SM -SN BR BKN007 OVC010 AMD NOT SKED=
METAR PAMC
WC PAMC
WS PAMC
WV PAMC